createdAt,value
2018-04-11T00:01:13.046Z,14.80
2018-04-11T00:03:40.029Z,14.80
2018-04-11T00:06:07.794Z,14.80
2018-04-11T00:08:35.556Z,14.80
2018-04-11T00:11:03.313Z,14.80
2018-04-11T00:13:31.075Z,14.80
2018-04-11T00:15:58.074Z,14.80
2018-04-11T00:18:25.071Z,14.80
2018-04-11T00:20:52.062Z,14.80
2018-04-11T00:23:19.063Z,14.80
2018-04-11T00:25:46.049Z,14.80
2018-04-11T00:28:13.047Z,14.80
2018-04-11T00:30:40.039Z,14.80
2018-04-11T00:33:07.044Z,14.80
2018-04-11T00:35:34.798Z,14.80
2018-04-11T00:38:01.793Z,14.80
2018-04-11T00:40:28.785Z,14.80
2018-04-11T00:42:55.773Z,14.80
2018-04-11T00:45:22.770Z,14.80
2018-04-11T00:47:49.763Z,14.80
2018-04-11T00:50:16.759Z,14.80
2018-04-11T00:52:59.587Z,14.80
2018-04-11T00:55:26.581Z,14.80
2018-04-11T00:57:53.579Z,14.80
2018-04-11T01:00:20.569Z,14.80
2018-04-11T01:02:47.565Z,14.80
2018-04-11T01:05:14.566Z,14.80
2018-04-11T01:07:41.557Z,14.80
2018-04-11T01:10:08.552Z,14.80
2018-04-11T01:12:35.557Z,14.80
2018-04-11T01:15:03.320Z,14.80
2018-04-11T01:17:31.087Z,14.80
2018-04-11T01:19:58.852Z,14.80
2018-04-11T01:22:26.614Z,14.80
2018-04-11T01:24:54.384Z,14.80
2018-04-11T01:27:22.158Z,14.80
2018-04-11T01:29:49.913Z,14.80
2018-04-11T01:32:17.678Z,14.80
2018-04-11T01:34:45.455Z,14.80
2018-04-11T01:37:12.445Z,14.80
2018-04-11T01:39:39.438Z,14.80
2018-04-11T01:42:07.199Z,14.80
2018-04-11T01:44:34.954Z,14.80
2018-04-11T01:47:02.710Z,14.80
2018-04-11T01:49:29.702Z,14.80
2018-04-11T01:51:56.693Z,14.80
2018-04-11T01:54:23.696Z,14.80
2018-04-11T01:56:50.692Z,14.80
2018-04-11T01:59:17.686Z,14.80
2018-04-11T02:01:44.674Z,14.80
2018-04-11T02:04:11.670Z,14.80
2018-04-11T02:06:38.684Z,14.80
2018-04-11T02:09:06.446Z,14.80
2018-04-11T02:11:34.213Z,14.80
2018-04-11T02:14:01.978Z,14.80
2018-04-11T02:16:29.756Z,14.80
2018-04-11T02:18:56.746Z,14.80
2018-04-11T02:21:23.762Z,14.80
2018-04-11T02:23:50.751Z,14.80
2018-04-11T02:26:17.746Z,14.80
2018-04-11T02:28:44.738Z,14.80
2018-04-11T02:31:11.739Z,14.80
2018-04-11T02:33:38.730Z,14.80
2018-04-11T02:36:05.727Z,14.80
2018-04-11T02:38:32.722Z,14.80
2018-04-11T02:40:59.710Z,14.80
2018-04-11T02:43:26.710Z,14.80
2018-04-11T02:45:53.706Z,14.80
2018-04-11T02:48:20.694Z,14.80
2018-04-11T02:50:47.695Z,14.80
2018-04-11T02:53:14.682Z,14.80
2018-04-11T02:55:41.683Z,14.80
2018-04-11T02:58:08.678Z,14.80
2018-04-11T03:00:35.676Z,14.80
2018-04-11T03:03:02.676Z,14.80
2018-04-11T03:05:29.670Z,14.80
2018-04-11T03:07:56.671Z,14.80
2018-04-11T03:10:23.667Z,14.80
2018-04-11T03:12:50.670Z,14.80
2018-04-11T03:15:17.676Z,14.80
2018-04-11T03:17:44.661Z,14.80
2018-04-11T03:20:11.657Z,14.80
2018-04-11T03:22:38.658Z,14.80
2018-04-11T03:25:05.654Z,14.80
2018-04-11T03:27:32.651Z,14.80
2018-04-11T03:30:00.088Z,14.80
2018-04-11T03:32:27.079Z,14.80
2018-04-11T03:34:54.158Z,14.70
2018-04-11T03:37:21.155Z,14.70
2018-04-11T03:39:48.927Z,14.80
2018-04-11T03:42:16.687Z,14.80
2018-04-11T03:44:44.446Z,14.80
2018-04-11T03:47:12.203Z,14.80
2018-04-11T03:49:39.202Z,14.80
2018-04-11T03:52:06.207Z,14.80
2018-04-11T03:54:33.974Z,14.80
2018-04-11T03:57:00.996Z,14.70
2018-04-11T03:59:27.986Z,14.70
2018-04-11T04:01:54.999Z,14.80
2018-04-11T04:04:22.908Z,14.70
2018-04-11T04:06:49.915Z,14.70
2018-04-11T04:09:17.688Z,14.80
2018-04-11T04:11:45.455Z,14.80
2018-04-11T04:14:19.233Z,14.80
2018-04-11T04:16:52.274Z,14.70
2018-04-11T04:19:37.147Z,14.70
2018-04-11T04:22:04.147Z,14.80
2018-04-11T04:24:31.906Z,14.70
2018-04-11T04:26:59.671Z,14.80
2018-04-11T04:29:27.428Z,14.70
2018-04-11T04:31:54.418Z,14.80
2018-04-11T04:34:21.410Z,14.70
2018-04-11T04:36:48.406Z,14.70
2018-04-11T04:39:15.401Z,14.70
2018-04-11T04:41:42.400Z,14.70
2018-04-11T04:44:09.394Z,14.80
2018-04-11T04:46:36.386Z,14.70
2018-04-11T04:49:03.386Z,14.80
2018-04-11T04:51:30.387Z,14.80
2018-04-11T04:53:57.383Z,14.70
2018-04-11T04:56:25.147Z,14.70
2018-04-11T04:58:52.913Z,14.80
2018-04-11T05:01:20.674Z,14.70
2018-04-11T05:03:48.525Z,14.70
2018-04-11T05:06:15.607Z,14.80
2018-04-11T05:08:42.600Z,14.80
2018-04-11T05:11:09.632Z,14.70
2018-04-11T05:13:36.636Z,14.80
2018-04-11T05:16:04.390Z,14.70
2018-04-11T05:18:32.150Z,14.80
2018-04-11T05:20:59.143Z,14.70
2018-04-11T05:23:26.130Z,14.70
2018-04-11T05:25:53.118Z,14.70
2018-04-11T05:28:20.111Z,14.70
2018-04-11T05:30:47.102Z,14.70
2018-04-11T05:33:14.087Z,14.70
2018-04-11T05:35:41.083Z,14.70
2018-04-11T05:38:08.845Z,14.70
2018-04-11T05:40:36.612Z,14.70
2018-04-11T05:43:04.367Z,14.70
2018-04-11T05:45:32.126Z,14.70
2018-04-11T05:47:59.934Z,14.70
2018-04-11T05:50:27.652Z,14.70
2018-04-11T05:52:54.642Z,14.70
2018-04-11T05:55:21.646Z,14.70
2018-04-11T05:57:49.407Z,14.70
2018-04-11T06:00:17.166Z,14.70
2018-04-11T06:02:44.163Z,14.70
2018-04-11T06:05:11.160Z,14.70
2018-04-11T06:07:38.158Z,14.70
2018-04-11T06:10:05.161Z,14.70
2018-04-11T06:12:32.926Z,14.70
2018-04-11T06:15:00.687Z,14.70
2018-04-11T06:17:28.445Z,14.70
2018-04-11T06:19:56.202Z,14.70
2018-04-11T06:22:23.236Z,14.70
2018-04-11T06:24:50.227Z,14.70
2018-04-11T06:27:17.205Z,14.70
2018-04-11T06:29:44.198Z,14.70
2018-04-11T06:32:11.953Z,14.70
2018-04-11T06:34:39.715Z,14.70
2018-04-11T06:37:07.478Z,14.70
2018-04-11T06:39:34.481Z,14.70
2018-04-11T06:42:01.522Z,14.70
2018-04-11T06:44:29.239Z,14.70
2018-04-11T06:46:56.986Z,14.70
2018-04-11T06:49:23.978Z,14.70
2018-04-11T06:51:50.970Z,14.70
2018-04-11T06:54:17.967Z,14.70
2018-04-11T06:56:44.954Z,14.70
2018-04-11T06:59:11.950Z,14.70
2018-04-11T07:01:38.972Z,14.70
2018-04-11T07:04:05.958Z,14.70
2018-04-11T07:06:32.949Z,14.70
2018-04-11T07:08:59.940Z,14.70
2018-04-11T07:11:26.966Z,14.70
2018-04-11T07:13:54.721Z,14.70
2018-04-11T07:16:22.470Z,14.70
2018-04-11T07:18:49.466Z,14.70
2018-04-11T07:21:16.464Z,14.70
2018-04-11T07:23:43.454Z,14.70
2018-04-11T07:26:10.452Z,14.70
2018-04-11T07:28:37.446Z,14.70
2018-04-11T07:31:04.438Z,14.70
2018-04-11T07:33:31.434Z,14.70
2018-04-11T07:35:58.432Z,14.70
2018-04-11T07:38:25.425Z,14.70
2018-04-11T07:40:52.427Z,14.70
2018-04-11T07:43:19.422Z,14.70
2018-04-11T07:45:46.418Z,14.70
2018-04-11T07:48:13.418Z,14.70
2018-04-11T07:50:40.414Z,14.70
2018-04-11T07:53:07.425Z,14.70
2018-04-11T07:55:34.426Z,14.70
2018-04-11T07:58:02.186Z,14.70
2018-04-11T08:00:29.954Z,14.70
2018-04-11T08:02:57.709Z,14.70
2018-04-11T08:05:25.478Z,14.70
2018-04-11T08:07:53.240Z,14.70
2018-04-11T08:10:20.245Z,14.70
2018-04-11T08:12:47.230Z,14.70
2018-04-11T08:15:14.991Z,14.70
2018-04-11T08:17:42.765Z,14.70
2018-04-11T08:20:10.527Z,14.70
2018-04-11T08:22:38.274Z,14.70
2018-04-11T08:25:06.047Z,14.70
2018-04-11T08:27:33.808Z,14.70
2018-04-11T08:30:01.577Z,14.70
2018-04-11T08:32:28.565Z,14.70
2018-04-11T08:34:55.571Z,14.70
2018-04-11T08:37:23.326Z,14.60
2018-04-11T08:39:51.107Z,14.70
2018-04-11T08:42:18.099Z,14.60
2018-04-11T08:44:45.080Z,14.70
2018-04-11T08:47:12.846Z,14.70
2018-04-11T08:49:40.603Z,14.70
2018-04-11T08:52:08.369Z,14.70
2018-04-11T08:54:36.128Z,14.70
2018-04-11T08:57:03.898Z,14.70
2018-04-11T08:59:31.660Z,14.70
2018-04-11T09:01:59.413Z,14.70
2018-04-11T09:04:26.401Z,14.70
2018-04-11T09:06:53.408Z,14.70
2018-04-11T09:09:20.405Z,14.70
2018-04-11T09:11:47.402Z,14.70
2018-04-11T09:14:15.161Z,14.70
2018-04-11T09:16:42.164Z,14.60
2018-04-11T09:19:09.160Z,14.70
2018-04-11T09:21:36.937Z,14.70
2018-04-11T09:24:03.921Z,14.70
2018-04-11T09:26:30.927Z,14.70
2018-04-11T09:28:58.683Z,14.70
2018-04-11T09:31:26.451Z,14.70
2018-04-11T09:33:53.445Z,14.70
2018-04-11T09:36:21.214Z,14.70
2018-04-11T09:38:48.230Z,14.70
2018-04-11T09:41:15.219Z,14.70
2018-04-11T09:43:42.214Z,14.60
2018-04-11T09:46:09.210Z,14.70
2018-04-11T09:48:36.208Z,14.70
2018-04-11T09:51:03.211Z,14.70
2018-04-11T09:53:30.199Z,14.70
2018-04-11T09:55:57.197Z,14.70
2018-04-11T09:58:24.198Z,14.70
2018-04-11T10:00:53.152Z,14.70
2018-04-11T10:03:22.126Z,14.70
2018-04-11T10:05:49.149Z,14.70
2018-04-11T10:08:16.139Z,14.70
2018-04-11T10:10:43.142Z,14.70
2018-04-11T10:13:10.136Z,14.70
2018-04-11T10:15:37.137Z,14.70
2018-04-11T10:18:04.130Z,14.70
2018-04-11T10:20:31.907Z,14.70
2018-04-11T10:22:58.898Z,14.70
2018-04-11T10:25:25.887Z,14.70
2018-04-11T10:27:53.642Z,14.70
2018-04-11T10:30:21.411Z,14.70
2018-04-11T10:32:48.415Z,14.70
2018-04-11T10:35:15.427Z,14.70
2018-04-11T10:37:42.422Z,14.70
2018-04-11T10:40:09.414Z,14.70
2018-04-11T10:42:36.408Z,14.70
2018-04-11T10:45:03.419Z,14.70
2018-04-11T10:47:30.414Z,14.70
2018-04-11T10:49:57.410Z,14.70
2018-04-11T10:52:24.409Z,14.70
2018-04-11T10:54:52.162Z,14.70
2018-04-11T10:57:19.159Z,14.70
2018-04-11T10:59:46.150Z,14.70
2018-04-11T11:02:13.141Z,14.70
2018-04-11T11:04:40.146Z,14.70
2018-04-11T11:07:07.142Z,14.70
2018-04-11T11:09:34.134Z,14.70
2018-04-11T11:12:01.143Z,14.70
2018-04-11T11:14:28.144Z,14.70
2018-04-11T11:16:55.924Z,14.70
2018-04-11T11:19:22.950Z,14.70
2018-04-11T11:21:49.949Z,14.70
2018-04-11T11:24:16.947Z,14.70
2018-04-11T11:26:44.738Z,14.70
2018-04-11T11:29:11.731Z,14.80
2018-04-11T11:31:38.746Z,14.70
2018-04-11T11:34:05.744Z,14.70
2018-04-11T11:36:32.745Z,14.80
2018-04-11T11:38:59.734Z,14.70
2018-04-11T11:41:26.776Z,14.80
2018-04-11T11:43:53.766Z,14.80
2018-04-11T11:46:20.773Z,14.80
2018-04-11T11:48:48.529Z,14.80
2018-04-11T11:51:15.538Z,14.80
2018-04-11T11:53:42.522Z,14.80
2018-04-11T11:56:09.530Z,14.80
2018-04-11T11:58:36.523Z,14.80
2018-04-11T12:01:04.290Z,14.80
2018-04-11T12:03:32.051Z,14.80
2018-04-11T12:05:59.814Z,14.80
2018-04-11T12:08:26.812Z,14.80
2018-04-11T12:10:53.828Z,14.80
2018-04-11T12:13:20.818Z,14.80
2018-04-11T12:15:47.817Z,14.90
2018-04-11T12:18:14.819Z,14.80
2018-04-11T12:20:41.813Z,14.80
2018-04-11T12:23:08.818Z,14.80
2018-04-11T12:25:35.832Z,14.80
2018-04-11T12:28:02.835Z,14.80
2018-04-11T12:30:30.603Z,14.80
2018-04-11T12:32:57.612Z,14.80
2018-04-11T12:35:24.618Z,14.80
2018-04-11T12:37:51.615Z,14.80
2018-04-11T12:40:18.618Z,14.90
2018-04-11T12:42:45.619Z,14.90
2018-04-11T12:45:13.387Z,14.90
2018-04-11T12:47:41.159Z,14.90
2018-04-11T12:50:08.922Z,14.90
2018-04-11T12:52:35.926Z,14.90
2018-04-11T12:55:02.923Z,14.90
2018-04-11T12:57:29.930Z,14.90
2018-04-11T12:59:56.926Z,14.90
2018-04-11T13:02:23.936Z,14.90
2018-04-11T13:04:51.698Z,14.90
2018-04-11T13:07:19.471Z,14.90
2018-04-11T13:09:46.470Z,14.90
2018-04-11T13:12:13.483Z,14.90
2018-04-11T13:14:40.483Z,14.90
2018-04-11T13:17:07.487Z,14.90
2018-04-11T13:19:34.486Z,14.90
2018-04-11T13:22:01.544Z,14.90
2018-04-11T13:24:28.500Z,14.90
2018-04-11T13:26:55.507Z,14.90
2018-04-11T13:29:22.495Z,14.90
2018-04-11T13:31:50.272Z,14.90
2018-04-11T13:34:18.134Z,14.90
2018-04-11T13:36:45.197Z,14.90
2018-04-11T13:39:12.837Z,14.90
2018-04-11T13:41:39.938Z,14.90
2018-04-11T13:44:06.952Z,14.90
2018-04-11T13:46:33.975Z,15.00
2018-04-11T13:49:01.007Z,15.00
2018-04-11T13:51:28.766Z,15.00
2018-04-11T13:53:56.523Z,15.00
2018-04-11T13:56:23.535Z,15.00
2018-04-11T13:58:51.343Z,15.10
2018-04-11T14:01:19.095Z,15.10
2018-04-11T14:03:46.204Z,15.10
2018-04-11T14:06:13.206Z,15.20
2018-04-11T14:08:40.966Z,15.30
2018-04-11T14:11:08.719Z,15.30
2018-04-11T14:13:36.478Z,15.30
2018-04-11T14:16:03.471Z,15.30
2018-04-11T14:18:30.462Z,15.30
2018-04-11T14:20:57.461Z,15.20
2018-04-11T14:23:24.454Z,15.20
2018-04-11T14:25:51.451Z,15.20
2018-04-11T14:28:18.440Z,15.20
2018-04-11T14:30:45.430Z,15.20
2018-04-11T14:33:12.431Z,15.20
2018-04-11T14:35:39.423Z,15.20
2018-04-11T14:38:06.410Z,15.20
2018-04-11T14:40:33.402Z,15.20
2018-04-11T14:43:00.402Z,15.20
2018-04-11T14:45:27.420Z,15.20
2018-04-11T14:47:54.432Z,15.20
2018-04-11T14:55:38.445Z,15.20
2018-04-11T14:58:05.640Z,15.20
2018-04-11T15:00:32.751Z,15.20
2018-04-11T15:02:59.773Z,15.20
2018-04-11T15:05:27.135Z,15.20
2018-04-11T15:07:54.135Z,15.20
2018-04-11T15:10:21.189Z,15.20
2018-04-11T15:12:48.187Z,15.20
2018-04-11T15:15:15.208Z,15.20
2018-04-11T15:17:42.951Z,15.20
2018-04-11T15:20:10.719Z,15.20
2018-04-11T15:22:38.483Z,15.30
2018-04-11T15:25:06.246Z,15.40
2018-04-11T15:27:34.068Z,15.40
2018-04-11T15:30:01.017Z,15.40
2018-04-11T15:32:28.070Z,15.40
2018-04-11T15:34:55.057Z,15.40
2018-04-11T15:37:22.826Z,15.40
2018-04-11T15:39:49.819Z,15.30
2018-04-11T15:42:16.850Z,15.50
2018-04-11T15:44:43.861Z,15.60
2018-04-11T15:47:10.865Z,15.60
2018-04-11T15:49:37.850Z,15.60
2018-04-11T15:52:04.846Z,15.60
2018-04-11T15:54:31.846Z,15.60
2018-04-11T15:56:58.848Z,15.50
2018-04-11T15:59:25.865Z,15.50
2018-04-11T16:01:52.854Z,15.50
2018-04-11T16:04:19.855Z,15.40
2018-04-11T16:06:46.849Z,15.40
2018-04-11T16:09:13.853Z,15.40
2018-04-11T16:11:40.849Z,15.40
2018-04-11T16:14:07.849Z,15.40
2018-04-11T16:16:34.842Z,15.30
2018-04-11T16:19:02.608Z,15.30
2018-04-11T16:21:30.364Z,15.30
2018-04-11T16:23:58.118Z,15.30
2018-04-11T16:26:25.118Z,15.30
2018-04-11T16:28:52.115Z,15.30
2018-04-11T16:31:19.878Z,15.30
2018-04-11T16:33:47.778Z,15.30
2018-04-11T16:36:14.775Z,15.20
2018-04-11T16:38:41.786Z,15.30
2018-04-11T16:41:08.782Z,15.30
2018-04-11T16:43:35.765Z,15.30
2018-04-11T16:46:02.766Z,15.30
2018-04-11T16:48:29.762Z,15.30
2018-04-11T16:50:56.754Z,15.30
2018-04-11T16:53:23.751Z,15.30
2018-04-11T16:55:50.743Z,15.30
2018-04-11T16:58:17.726Z,15.30
2018-04-11T17:00:44.718Z,15.20
2018-04-11T17:03:11.714Z,15.30
2018-04-11T17:05:39.473Z,15.30
2018-04-11T17:08:06.471Z,15.30
2018-04-11T17:10:33.467Z,15.30
2018-04-11T17:13:00.530Z,15.30
2018-04-11T17:15:27.543Z,15.30
2018-04-11T17:17:55.315Z,15.30
2018-04-11T17:20:29.150Z,15.30
2018-04-11T17:23:02.315Z,15.30
2018-04-11T17:25:35.942Z,15.30
2018-04-11T17:28:08.907Z,15.30
2018-04-11T17:30:41.998Z,15.30
2018-04-11T17:33:09.002Z,15.30
2018-04-11T17:35:36.011Z,15.30
2018-04-11T17:38:03.004Z,15.30
2018-04-11T17:40:30.014Z,15.30
2018-04-11T17:42:57.027Z,15.30
2018-04-11T17:45:24.790Z,15.30
2018-04-11T17:47:51.799Z,15.30
2018-04-11T17:50:18.791Z,15.30
2018-04-11T17:52:45.783Z,15.30
2018-04-11T17:55:12.782Z,15.30
2018-04-11T17:57:39.779Z,15.30
2018-04-11T18:00:06.787Z,15.30
2018-04-11T18:02:33.798Z,15.40
2018-04-11T18:05:01.577Z,15.40
2018-04-11T18:07:28.578Z,15.40
2018-04-11T18:09:55.576Z,15.50
2018-04-11T18:12:22.567Z,15.50
2018-04-11T18:14:49.574Z,15.50
2018-04-11T18:17:16.596Z,15.50
2018-04-11T18:19:43.605Z,15.50
2018-04-11T18:22:10.615Z,15.50
2018-04-11T18:24:37.611Z,15.40
2018-04-11T18:27:04.611Z,15.40
2018-04-11T18:29:31.606Z,15.40
2018-04-11T18:31:58.598Z,15.40
2018-04-11T18:34:25.591Z,15.40
2018-04-11T18:36:52.587Z,15.30
2018-04-11T18:39:19.578Z,15.40
2018-04-11T18:41:46.575Z,15.30
2018-04-11T18:44:13.566Z,15.30
2018-04-11T18:46:40.559Z,15.30
2018-04-11T18:49:07.559Z,15.30
2018-04-11T18:51:34.551Z,15.30
2018-04-11T18:54:01.557Z,15.30
2018-04-11T18:56:28.593Z,15.30
2018-04-11T18:58:55.619Z,15.30
2018-04-11T19:01:22.616Z,15.30
2018-04-11T19:03:50.381Z,15.30
2018-04-11T19:06:18.144Z,15.30
2018-04-11T19:08:45.911Z,15.30
2018-04-11T19:11:13.671Z,15.30
2018-04-11T19:13:41.431Z,15.30
2018-04-11T19:16:09.199Z,15.30
2018-04-11T19:18:36.954Z,15.30
2018-04-11T19:21:04.715Z,15.30
2018-04-11T19:23:32.501Z,15.30
2018-04-11T19:25:59.500Z,15.30
2018-04-11T19:28:26.496Z,15.30
2018-04-11T19:30:53.499Z,15.30
2018-04-11T19:33:20.497Z,15.20
2018-04-11T19:35:47.508Z,15.30
2018-04-11T19:38:14.523Z,15.30
2018-04-11T19:40:41.519Z,15.30
2018-04-11T19:43:08.515Z,15.30
2018-04-11T19:45:35.510Z,15.30
2018-04-11T19:48:02.520Z,15.30
2018-04-11T19:50:29.518Z,15.30
2018-04-11T19:52:56.527Z,15.30
2018-04-11T19:55:24.306Z,15.30
2018-04-11T19:57:52.072Z,15.30
2018-04-11T20:00:19.838Z,15.30
2018-04-11T20:02:46.834Z,15.20
2018-04-11T20:05:13.826Z,15.30
2018-04-11T20:07:41.587Z,15.30
2018-04-11T20:10:09.406Z,15.30
2018-04-11T20:12:36.358Z,15.20
2018-04-11T20:15:03.359Z,15.30
2018-04-11T20:17:30.360Z,15.30
2018-04-11T20:19:57.339Z,15.30
2018-04-11T20:22:24.336Z,15.20
2018-04-11T20:24:52.102Z,15.30
2018-04-11T20:27:19.094Z,15.20
2018-04-11T20:29:46.094Z,15.30
2018-04-11T20:32:13.079Z,15.20
2018-04-11T20:34:40.839Z,15.30
2018-04-11T20:37:08.594Z,15.30
2018-04-11T20:39:36.367Z,15.30
2018-04-11T20:42:04.127Z,15.30
2018-04-11T20:44:31.877Z,15.30
2018-04-11T20:46:58.871Z,15.20
2018-04-11T20:49:25.866Z,15.20
2018-04-11T20:51:52.859Z,15.20
2018-04-11T20:54:19.850Z,15.30
2018-04-11T20:56:46.846Z,15.20
2018-04-11T20:59:13.839Z,15.20
2018-04-11T21:01:40.825Z,15.30
2018-04-11T21:04:07.814Z,15.20
2018-04-11T21:06:35.574Z,15.20
2018-04-11T21:09:02.559Z,15.20
2018-04-11T21:11:30.309Z,15.20
2018-04-11T21:13:57.302Z,15.20
2018-04-11T21:16:24.293Z,15.20
2018-04-11T21:18:51.291Z,15.20
2018-04-11T21:21:18.294Z,15.20
2018-04-11T21:23:45.309Z,15.20
2018-04-11T21:26:12.295Z,15.20
2018-04-11T21:28:40.055Z,15.20
2018-04-11T21:31:07.815Z,15.20
2018-04-11T21:33:34.818Z,15.20
2018-04-11T21:36:01.806Z,15.20
2018-04-11T21:38:28.798Z,15.20
2018-04-11T21:40:55.791Z,15.20
2018-04-11T21:43:22.774Z,15.20
2018-04-11T21:45:49.765Z,15.20
2018-04-11T21:48:16.757Z,15.20
2018-04-11T21:50:43.763Z,15.20
2018-04-11T21:53:10.758Z,15.20
2018-04-11T21:55:37.742Z,15.20
2018-04-11T21:58:04.734Z,15.20
2018-04-11T22:00:31.731Z,15.20
2018-04-11T22:02:58.723Z,15.20
2018-04-11T22:05:26.482Z,15.20
2018-04-11T22:07:54.242Z,15.20
2018-04-11T22:10:22.001Z,15.20
2018-04-11T22:12:48.990Z,15.20
2018-04-11T22:15:16.048Z,15.20
2018-04-11T22:17:43.751Z,15.20
2018-04-11T22:20:11.519Z,15.20
2018-04-11T22:22:38.519Z,15.20
2018-04-11T22:25:05.517Z,15.20
2018-04-11T22:27:33.282Z,15.20
2018-04-11T22:30:01.039Z,15.20
2018-04-11T22:32:28.033Z,15.20
2018-04-11T22:34:55.030Z,15.20
2018-04-11T22:37:22.803Z,15.20
2018-04-11T22:39:50.563Z,15.20
2018-04-11T22:42:18.327Z,15.20
2018-04-11T22:44:46.086Z,15.20
2018-04-11T22:47:13.854Z,15.20
2018-04-11T22:49:41.615Z,15.20
2018-04-11T22:52:09.383Z,15.20
2018-04-11T22:54:37.148Z,15.20
2018-04-11T22:57:04.905Z,15.20
2018-04-11T22:59:32.666Z,15.20
2018-04-11T23:02:00.428Z,15.20
2018-04-11T23:04:27.418Z,15.20
2018-04-11T23:06:54.419Z,15.20
2018-04-11T23:09:21.419Z,15.20
2018-04-11T23:11:48.409Z,15.10
2018-04-11T23:14:15.410Z,15.20
2018-04-11T23:16:42.403Z,15.20
2018-04-11T23:19:10.166Z,15.10
2018-04-11T23:21:37.159Z,15.20
2018-04-11T23:24:04.178Z,15.20
2018-04-11T23:26:31.934Z,15.10
2018-04-11T23:28:59.693Z,15.20
2018-04-11T23:31:27.462Z,15.10
2018-04-11T23:33:55.209Z,15.20
2018-04-11T23:36:22.211Z,15.10
2018-04-11T23:38:49.208Z,15.10
2018-04-11T23:41:16.975Z,15.10
2018-04-11T23:43:44.730Z,15.10
2018-04-11T23:46:12.482Z,15.10
2018-04-11T23:48:39.478Z,15.10
2018-04-11T23:51:06.480Z,15.10
2018-04-11T23:53:33.462Z,15.10
2018-04-11T23:56:00.462Z,15.10
2018-04-11T23:58:27.454Z,15.10
